createdAt,value
2018-09-15T00:01:57.926Z,15.20
2018-09-15T00:04:00.410Z,15.20
2018-09-15T00:06:02.550Z,15.30
2018-09-15T00:08:04.799Z,15.20
2018-09-15T00:10:06.971Z,15.20
2018-09-15T00:12:09.161Z,15.20
2018-09-15T00:14:11.398Z,15.20
2018-09-15T00:16:13.601Z,15.10
2018-09-15T00:18:16.775Z,15.10
2018-09-15T00:20:18.934Z,15.10
2018-09-15T00:22:21.464Z,15.00
2018-09-15T00:24:23.620Z,15.00
2018-09-15T00:26:25.812Z,15.10
2018-09-15T00:28:28.244Z,15.10
2018-09-15T00:30:30.432Z,15.00
2018-09-15T00:32:32.684Z,15.00
2018-09-15T00:34:35.443Z,15.00
2018-09-15T00:36:37.600Z,14.90
2018-09-15T00:38:39.795Z,14.90
2018-09-15T00:40:41.968Z,14.90
2018-09-15T00:42:44.297Z,14.80
2018-09-15T00:44:46.455Z,14.80
2018-09-15T00:46:48.875Z,14.80
2018-09-15T00:48:51.078Z,14.80
2018-09-15T00:50:53.258Z,14.70
2018-09-15T00:52:55.471Z,14.70
2018-09-15T00:54:57.620Z,14.60
2018-09-15T00:56:59.823Z,14.60
2018-09-15T00:59:02.003Z,14.60
2018-09-15T01:01:04.170Z,14.60
2018-09-15T01:03:06.534Z,14.60
2018-09-15T01:05:08.723Z,14.50
2018-09-15T01:07:10.863Z,14.50
2018-09-15T01:09:13.001Z,14.50
2018-09-15T01:11:15.491Z,14.50
2018-09-15T01:13:17.704Z,14.40
2018-09-15T01:15:19.906Z,14.40
2018-09-15T01:17:22.093Z,14.30
2018-09-15T01:19:24.286Z,14.30
2018-09-15T01:21:26.466Z,14.30
2018-09-15T01:23:28.654Z,14.30
2018-09-15T01:25:30.813Z,14.30
2018-09-15T01:27:32.997Z,14.30
2018-09-15T01:29:35.355Z,14.30
2018-09-15T01:31:37.512Z,14.30
2018-09-15T01:33:39.675Z,14.30
2018-09-15T01:35:41.810Z,14.40
2018-09-15T01:37:43.940Z,14.40
2018-09-15T01:39:46.125Z,14.30
2018-09-15T01:41:48.325Z,14.30
2018-09-15T01:43:50.450Z,14.30
2018-09-15T01:45:52.619Z,14.20
2018-09-15T01:47:54.787Z,14.20
2018-09-15T01:49:56.983Z,14.20
2018-09-15T01:51:59.191Z,14.10
2018-09-15T01:54:01.394Z,14.10
2018-09-15T01:56:03.554Z,14.10
2018-09-15T01:58:05.783Z,14.10
2018-09-15T02:00:08.468Z,14.10
2018-09-15T02:02:10.662Z,14.10
2018-09-15T02:04:12.854Z,14.10
2018-09-15T02:06:15.019Z,14.10
2018-09-15T02:08:17.191Z,14.10
2018-09-15T02:10:19.342Z,14.00
2018-09-15T02:12:21.660Z,14.00
2018-09-15T02:14:23.822Z,14.10
2018-09-15T02:16:25.971Z,14.20
2018-09-15T02:18:28.414Z,14.10
2018-09-15T02:20:30.589Z,14.10
2018-09-15T02:22:32.731Z,14.10
2018-09-15T02:24:34.959Z,14.10
2018-09-15T02:26:37.099Z,14.00
2018-09-15T02:28:39.314Z,14.10
2018-09-15T02:30:41.453Z,14.20
2018-09-15T02:32:43.651Z,14.20
2018-09-15T02:34:45.780Z,14.10
2018-09-15T02:36:47.911Z,14.10
2018-09-15T02:38:50.049Z,14.10
2018-09-15T02:40:52.236Z,14.10
2018-09-15T02:42:54.622Z,14.00
2018-09-15T02:44:56.780Z,14.00
2018-09-15T02:46:58.976Z,14.00
2018-09-15T02:49:01.166Z,14.00
2018-09-15T02:51:03.310Z,14.00
2018-09-15T02:53:05.482Z,14.00
2018-09-15T02:55:07.663Z,14.00
2018-09-15T02:57:09.818Z,14.00
2018-09-15T02:59:12.003Z,14.00
2018-09-15T03:01:14.453Z,14.00
2018-09-15T03:03:16.606Z,14.00
2018-09-15T03:05:18.794Z,13.90
2018-09-15T03:07:21.359Z,13.90
2018-09-15T03:09:23.522Z,14.00
2018-09-15T03:11:25.670Z,13.90
2018-09-15T03:13:28.137Z,13.90
2018-09-15T03:15:30.312Z,13.90
2018-09-15T03:17:32.426Z,14.00
2018-09-15T03:19:34.611Z,13.90
2018-09-15T03:21:36.782Z,14.00
2018-09-15T03:23:38.919Z,13.90
2018-09-15T03:25:41.367Z,13.90
2018-09-15T03:27:43.514Z,13.90
2018-09-15T03:29:45.710Z,13.90
2018-09-15T03:31:47.886Z,13.80
2018-09-15T03:33:50.102Z,13.80
2018-09-15T03:35:52.547Z,13.80
2018-09-15T03:37:54.657Z,13.70
2018-09-15T03:39:56.798Z,13.70
2018-09-15T03:41:59.312Z,13.70
2018-09-15T03:44:01.404Z,13.70
2018-09-15T03:46:03.569Z,13.60
2018-09-15T03:48:05.739Z,13.50
2018-09-15T03:50:08.122Z,13.50
2018-09-15T03:52:10.297Z,13.50
2018-09-15T03:54:15.253Z,13.50
2018-09-15T03:56:17.414Z,13.50
2018-09-15T03:58:26.240Z,13.40
2018-09-15T04:00:28.575Z,13.40
2018-09-15T04:02:30.727Z,13.40
2018-09-15T04:04:32.865Z,13.30
2018-09-15T04:06:35.042Z,13.30
2018-09-15T04:08:37.310Z,13.30
2018-09-15T04:10:39.442Z,13.30
2018-09-15T04:12:41.572Z,13.30
2018-09-15T04:14:43.791Z,13.30
2018-09-15T04:16:45.954Z,13.30
2018-09-15T04:18:48.121Z,13.30
2018-09-15T04:20:50.321Z,13.30
2018-09-15T04:22:52.442Z,13.20
2018-09-15T04:24:54.564Z,13.20
2018-09-15T04:26:56.755Z,13.20
2018-09-15T04:28:58.886Z,13.20
2018-09-15T04:31:01.097Z,13.20
2018-09-15T04:33:03.222Z,13.20
2018-09-15T04:35:05.382Z,13.20
2018-09-15T04:37:07.562Z,13.20
2018-09-15T04:39:11.163Z,13.20
2018-09-15T04:41:13.343Z,13.20
2018-09-15T04:43:15.831Z,13.20
2018-09-15T04:45:17.962Z,13.30
2018-09-15T04:47:20.123Z,13.30
2018-09-15T04:49:22.526Z,13.30
2018-09-15T04:51:24.685Z,13.30
2018-09-15T04:53:26.836Z,13.30
2018-09-15T04:55:28.998Z,13.30
2018-09-15T04:57:31.645Z,13.30
2018-09-15T04:59:33.758Z,13.40
2018-09-15T05:01:35.906Z,13.40
2018-09-15T05:03:38.160Z,13.50
2018-09-15T05:05:40.303Z,13.50
2018-09-15T05:07:42.463Z,13.40
2018-09-15T05:09:44.876Z,13.50
2018-09-15T05:11:47.036Z,13.50
2018-09-15T05:13:49.307Z,13.50
2018-09-15T05:15:52.399Z,13.50
2018-09-15T05:17:54.473Z,13.40
2018-09-15T05:19:56.618Z,13.50
2018-09-15T05:21:58.782Z,13.40
2018-09-15T05:24:01.007Z,13.50
2018-09-15T05:26:03.216Z,13.50
2018-09-15T05:28:05.393Z,13.40
2018-09-15T05:30:08.313Z,13.40
2018-09-15T05:32:10.522Z,13.50
2018-09-15T05:34:12.635Z,13.40
2018-09-15T05:36:14.821Z,13.50
2018-09-15T05:38:16.997Z,13.40
2018-09-15T05:40:19.192Z,13.40
2018-09-15T05:42:21.374Z,13.40
2018-09-15T05:44:23.546Z,13.40
2018-09-15T05:46:25.699Z,13.30
2018-09-15T05:48:28.047Z,13.40
2018-09-15T05:50:30.158Z,13.40
2018-09-15T05:52:32.330Z,13.40
2018-09-15T05:54:34.717Z,13.40
2018-09-15T05:56:36.915Z,13.40
2018-09-15T05:58:39.154Z,13.40
2018-09-15T06:00:41.408Z,13.40
2018-09-15T06:02:43.551Z,13.40
2018-09-15T06:04:45.739Z,13.50
2018-09-15T06:06:47.945Z,13.40
2018-09-15T06:08:50.038Z,13.40
2018-09-15T06:10:52.145Z,13.40
2018-09-15T06:12:54.303Z,13.40
2018-09-15T06:14:56.442Z,13.40
2018-09-15T06:16:58.722Z,13.40
2018-09-15T06:19:00.856Z,13.50
2018-09-15T06:21:03.029Z,13.70
2018-09-15T06:23:05.195Z,13.70
2018-09-15T06:25:07.361Z,13.80
2018-09-15T06:27:09.542Z,13.80
2018-09-15T06:29:11.668Z,13.90
2018-09-15T06:31:13.795Z,14.10
2018-09-15T06:33:16.198Z,13.90
2018-09-15T06:35:18.391Z,13.80
2018-09-15T06:37:20.534Z,13.80
2018-09-15T06:39:22.695Z,13.80
2018-09-15T06:41:24.858Z,13.90
2018-09-15T06:43:26.990Z,13.90
2018-09-15T06:45:29.192Z,13.90
2018-09-15T06:47:31.280Z,13.90
2018-09-15T06:49:33.410Z,14.10
2018-09-15T06:51:35.527Z,14.20
2018-09-15T06:53:37.734Z,14.40
2018-09-15T06:55:39.874Z,14.40
2018-09-15T06:57:42.100Z,14.40
2018-09-15T06:59:44.282Z,14.30
2018-09-15T07:01:46.766Z,14.30
2018-09-15T07:03:48.980Z,14.40
2018-09-15T07:05:51.104Z,14.70
2018-09-15T07:07:53.254Z,14.90
2018-09-15T07:09:55.375Z,15.40
2018-09-15T07:11:57.499Z,15.60
2018-09-15T07:13:59.683Z,15.30
2018-09-15T07:16:01.863Z,15.20
2018-09-15T07:18:04.141Z,15.00
2018-09-15T07:20:06.370Z,14.90
2018-09-15T07:22:08.454Z,15.00
2018-09-15T07:24:10.614Z,15.00
2018-09-15T07:28:21.582Z,15.40
2018-09-15T07:30:23.702Z,15.40
2018-09-15T07:32:25.986Z,15.20
2018-09-15T07:34:28.110Z,15.10
2018-09-15T07:36:30.233Z,15.00
2018-09-15T07:38:32.488Z,15.00
2018-09-15T07:40:34.606Z,15.00
2018-09-15T07:42:36.770Z,14.90
2018-09-15T07:44:38.955Z,14.90
2018-09-15T07:46:41.094Z,15.00
2018-09-15T07:48:43.298Z,15.00
2018-09-15T07:50:45.507Z,15.30
2018-09-15T07:52:47.611Z,15.30
2018-09-15T07:54:49.726Z,15.20
2018-09-15T07:56:52.182Z,15.20
2018-09-15T07:58:54.274Z,15.10
2018-09-15T08:00:56.401Z,15.20
2018-09-15T08:02:58.550Z,15.30
2018-09-15T08:05:00.673Z,15.50
2018-09-15T08:07:02.898Z,15.50
2018-09-15T08:09:05.882Z,15.60
2018-09-15T08:11:08.073Z,15.60
2018-09-15T08:13:10.146Z,15.60
2018-09-15T08:15:12.271Z,15.60
2018-09-15T08:17:14.425Z,15.50
2018-09-15T08:19:16.547Z,15.40
2018-09-15T08:21:18.735Z,15.60
2018-09-15T08:23:21.635Z,15.60
2018-09-15T08:25:23.779Z,15.70
2018-09-15T08:27:26.051Z,16.20
2018-09-15T08:29:28.225Z,16.50
2018-09-15T08:31:30.332Z,16.80
2018-09-15T08:33:32.462Z,16.50
2018-09-15T08:35:34.582Z,16.60
2018-09-15T08:37:36.990Z,16.90
2018-09-15T08:39:39.151Z,16.90
2018-09-15T08:41:41.266Z,17.10
2018-09-15T08:43:43.642Z,16.90
2018-09-15T08:45:48.419Z,16.70
2018-09-15T08:47:50.949Z,16.80
2018-09-15T08:49:53.071Z,16.60
2018-09-15T08:51:55.170Z,16.80
2018-09-15T08:53:57.290Z,17.00
2018-09-15T08:55:59.431Z,16.80
2018-09-15T08:58:01.558Z,17.10
2018-09-15T09:00:03.844Z,17.30
2018-09-15T09:02:10.603Z,17.80
2018-09-15T09:04:12.974Z,18.00
2018-09-15T09:06:15.611Z,17.70
2018-09-15T09:08:17.791Z,17.40
2018-09-15T09:10:19.949Z,17.10
2018-09-15T09:12:22.022Z,17.20
2018-09-15T09:14:24.131Z,17.30
2018-09-15T09:16:26.321Z,17.40
2018-09-15T09:18:28.458Z,17.30
2018-09-15T09:20:30.682Z,17.50
2018-09-15T09:22:32.838Z,17.70
2018-09-15T09:24:34.994Z,17.90
2018-09-15T09:26:37.210Z,17.90
2018-09-15T09:28:39.367Z,17.90
2018-09-15T09:30:41.540Z,17.80
2018-09-15T09:32:43.667Z,17.90
2018-09-15T09:34:45.796Z,17.80
2018-09-15T09:36:47.920Z,17.80
2018-09-15T09:38:50.006Z,17.30
2018-09-15T09:40:52.151Z,17.10
2018-09-15T09:42:54.350Z,17.10
2018-09-15T09:44:56.486Z,17.10
2018-09-15T09:46:58.630Z,17.20
2018-09-15T09:49:00.861Z,17.50
2018-09-15T09:51:02.972Z,17.70
2018-09-15T09:53:06.109Z,17.90
2018-09-15T09:55:08.335Z,18.00
2018-09-15T09:57:10.479Z,18.20
2018-09-15T09:59:12.587Z,18.00
2018-09-15T10:01:20.621Z,17.80
2018-09-15T10:03:23.001Z,18.10
2018-09-15T10:05:25.118Z,18.00
2018-09-15T10:07:27.238Z,18.00
2018-09-15T10:09:29.394Z,18.10
2018-09-15T10:11:31.481Z,18.00
2018-09-15T10:13:33.606Z,18.00
2018-09-15T10:15:35.837Z,18.00
2018-09-15T10:17:37.957Z,18.10
2018-09-15T10:19:40.183Z,17.90
2018-09-15T10:21:42.338Z,17.90
2018-09-15T10:23:44.426Z,18.20
2018-09-15T10:25:46.593Z,18.20
2018-09-15T10:27:48.712Z,18.10
2018-09-15T10:29:50.877Z,18.70
2018-09-15T10:31:52.996Z,18.90
2018-09-15T10:33:55.112Z,18.70
2018-09-15T10:35:57.249Z,19.30
2018-09-15T10:37:59.341Z,19.70
2018-09-15T10:40:01.730Z,19.90
2018-09-15T10:42:03.861Z,20.00
2018-09-15T10:44:06.165Z,19.20
2018-09-15T10:46:15.194Z,18.60
2018-09-15T10:48:17.389Z,18.30
2018-09-15T10:50:19.512Z,18.30
2018-09-15T10:52:21.995Z,18.30
2018-09-15T10:54:24.129Z,18.10
2018-09-15T10:56:26.253Z,17.90
2018-09-15T10:58:28.411Z,17.90
2018-09-15T11:00:30.641Z,17.80
2018-09-15T11:02:32.691Z,18.00
2018-09-15T11:04:34.838Z,18.60
2018-09-15T11:06:37.022Z,18.70
2018-09-15T11:08:39.138Z,18.60
2018-09-15T11:10:41.294Z,18.70
2018-09-15T11:12:43.413Z,18.90
2018-09-15T11:14:45.532Z,19.20
2018-09-15T11:16:47.740Z,19.60
2018-09-15T11:18:49.878Z,19.60
2018-09-15T11:20:52.014Z,19.60
2018-09-15T11:22:54.221Z,19.20
2018-09-15T11:24:56.262Z,18.60
2018-09-15T11:26:58.431Z,18.30
2018-09-15T11:29:00.846Z,18.00
2018-09-15T11:31:02.957Z,17.50
2018-09-15T11:33:05.292Z,17.30
2018-09-15T11:35:07.894Z,17.20
2018-09-15T11:37:10.058Z,17.10
2018-09-15T11:39:12.634Z,16.90
2018-09-15T11:41:15.163Z,16.50
2018-09-15T11:43:17.209Z,16.60
2018-09-15T11:45:19.354Z,16.60
2018-09-15T11:47:21.476Z,16.50
2018-09-15T11:49:23.579Z,16.50
2018-09-15T11:51:25.686Z,16.50
2018-09-15T11:53:27.829Z,16.40
2018-09-15T11:55:29.961Z,16.50
2018-09-15T11:57:32.098Z,16.60
2018-09-15T11:59:34.242Z,16.80
2018-09-15T12:01:36.456Z,17.00
2018-09-15T12:03:38.598Z,17.80
2018-09-15T12:05:40.749Z,19.10
2018-09-15T12:07:42.919Z,18.70
2018-09-15T12:09:52.274Z,18.10
2018-09-15T12:11:54.414Z,17.60
2018-09-15T12:13:56.593Z,17.20
2018-09-15T12:15:58.727Z,17.00
2018-09-15T12:18:00.863Z,16.70
2018-09-15T12:20:03.038Z,16.50
2018-09-15T12:22:05.214Z,16.70
2018-09-15T12:24:07.423Z,17.10
2018-09-15T12:26:09.642Z,17.20
2018-09-15T12:28:11.775Z,17.90
2018-09-15T12:30:13.953Z,18.00
2018-09-15T12:32:16.102Z,17.80
2018-09-15T12:34:18.354Z,17.60
2018-09-15T12:36:20.567Z,17.50
2018-09-15T12:38:22.943Z,17.80
2018-09-15T12:40:25.127Z,17.40
2018-09-15T12:42:27.240Z,17.30
2018-09-15T12:44:29.377Z,17.50
2018-09-15T12:46:31.514Z,17.60
2018-09-15T12:48:33.650Z,17.20
2018-09-15T12:50:35.827Z,17.10
2018-09-15T12:52:38.219Z,17.40
2018-09-15T12:54:40.377Z,17.40
2018-09-15T12:56:42.534Z,17.70
2018-09-15T12:58:44.676Z,18.00
2018-09-15T13:00:46.797Z,18.00
2018-09-15T13:02:48.918Z,18.00
2018-09-15T13:04:51.118Z,17.70
2018-09-15T13:06:53.259Z,17.50
2018-09-15T13:08:55.394Z,17.70
2018-09-15T13:10:57.889Z,17.60
2018-09-15T13:13:00.043Z,17.50
2018-09-15T13:15:02.192Z,17.40
2018-09-15T13:17:04.634Z,17.80
2018-09-15T13:19:06.798Z,17.70
2018-09-15T13:21:09.029Z,17.70
2018-09-15T13:23:11.179Z,17.70
2018-09-15T13:25:13.321Z,17.70
2018-09-15T13:27:15.447Z,17.80
2018-09-15T13:29:17.618Z,17.40
2018-09-15T13:31:19.770Z,17.40
2018-09-15T13:33:21.878Z,17.80
2018-09-15T13:35:24.381Z,17.70
2018-09-15T13:37:26.492Z,17.80
2018-09-15T13:39:28.613Z,18.00
2018-09-15T13:41:31.925Z,18.20
2018-09-15T13:43:34.037Z,18.10
2018-09-15T13:45:36.203Z,17.80
2018-09-15T13:47:38.578Z,17.70
2018-09-15T13:49:40.761Z,17.50
2018-09-15T13:51:42.895Z,17.70
2018-09-15T13:53:45.990Z,18.30
2018-09-15T13:55:48.170Z,18.40
2018-09-15T13:57:50.306Z,18.50
2018-09-15T13:59:52.446Z,18.80
2018-09-15T14:01:54.554Z,18.50
2018-09-15T14:03:56.715Z,18.60
2018-09-15T14:05:58.942Z,18.60
2018-09-15T14:08:01.110Z,18.20
2018-09-15T14:10:07.047Z,17.90
2018-09-15T14:12:05.914Z,17.80
2018-09-15T14:14:08.018Z,17.80
2018-09-15T14:16:10.283Z,18.10
2018-09-15T14:18:12.480Z,18.30
2018-09-15T14:20:14.611Z,18.50
2018-09-15T14:22:16.772Z,18.20
2018-09-15T14:24:19.405Z,18.10
2018-09-15T14:26:21.574Z,18.30
2018-09-15T14:28:23.766Z,18.20
2018-09-15T14:30:25.934Z,18.10
2018-09-15T14:32:28.142Z,18.60
2018-09-15T14:34:30.282Z,19.10
2018-09-15T14:36:32.645Z,19.10
2018-09-15T14:38:34.805Z,18.50
2018-09-15T14:40:36.865Z,18.50
2018-09-15T14:42:39.038Z,18.40
2018-09-15T14:44:41.142Z,18.50
2018-09-15T14:46:43.288Z,18.90
2018-09-15T14:48:45.651Z,19.40
2018-09-15T14:50:47.754Z,20.60
2018-09-15T14:52:49.882Z,20.70
2018-09-15T14:54:51.995Z,19.50
2018-09-15T14:56:54.142Z,19.00
2018-09-15T14:58:56.447Z,18.50
2018-09-15T15:00:58.576Z,18.20
2018-09-15T15:03:03.218Z,18.40
2018-09-15T15:05:05.486Z,19.10
2018-09-15T15:07:07.606Z,19.70
2018-09-15T15:09:10.335Z,19.20
2018-09-15T15:11:12.450Z,18.90
2018-09-15T15:13:14.573Z,18.70
2018-09-15T15:15:16.719Z,18.30
2018-09-15T15:17:19.068Z,18.10
2018-09-15T15:19:21.182Z,18.30
2018-09-15T15:21:23.320Z,18.50
2018-09-15T15:23:25.673Z,18.40
2018-09-15T15:25:27.771Z,18.20
2018-09-15T15:27:29.905Z,18.20
2018-09-15T15:29:32.095Z,18.50
2018-09-15T15:31:34.326Z,18.70
2018-09-15T15:33:36.395Z,18.60
2018-09-15T15:35:38.530Z,18.60
2018-09-15T15:37:40.741Z,18.70
2018-09-15T15:39:42.857Z,18.80
2018-09-15T15:41:45.077Z,19.00
2018-09-15T15:43:47.169Z,19.00
2018-09-15T15:45:49.286Z,19.10
2018-09-15T15:47:51.730Z,19.10
2018-09-15T15:49:53.858Z,19.00
2018-09-15T15:51:56.061Z,18.80
2018-09-15T15:53:58.238Z,18.90
2018-09-15T15:56:00.374Z,18.90
2018-09-15T15:58:02.697Z,18.80
2018-09-15T16:00:05.249Z,18.80
2018-09-15T16:02:07.421Z,18.80
2018-09-15T16:04:09.595Z,18.80
2018-09-15T16:18:56.396Z,18.90
2018-09-15T16:20:58.513Z,18.30
2018-09-15T16:23:00.657Z,18.30
2018-09-15T16:25:02.937Z,18.20
2018-09-15T16:27:05.150Z,18.30
2018-09-15T16:29:07.435Z,18.00
2018-09-15T16:31:09.642Z,18.00
2018-09-15T16:33:11.784Z,17.70
2018-09-15T16:35:13.938Z,17.60
2018-09-15T16:37:16.049Z,17.60
2018-09-15T16:39:18.185Z,17.50
2018-09-15T16:41:20.312Z,17.20
2018-09-15T16:43:22.475Z,17.30
2018-09-15T16:45:24.612Z,17.10
2018-09-15T16:47:26.722Z,17.10
2018-09-15T16:49:28.905Z,17.10
2018-09-15T16:51:31.034Z,17.10
2018-09-15T16:53:39.893Z,17.10
2018-09-15T16:55:42.022Z,17.10
2018-09-15T16:57:44.146Z,17.20
2018-09-15T16:59:46.573Z,17.20
2018-09-15T17:01:48.764Z,17.20
2018-09-15T17:03:50.898Z,17.20
2018-09-15T17:05:53.154Z,17.30
2018-09-15T17:07:55.320Z,17.30
2018-09-15T17:09:57.500Z,17.30
2018-09-15T17:11:59.679Z,17.20
2018-09-15T17:14:01.835Z,17.20
2018-09-15T17:16:03.985Z,17.20
2018-09-15T17:18:06.121Z,17.10
2018-09-15T17:20:08.259Z,17.00
2018-09-15T17:22:10.397Z,17.00
2018-09-15T17:24:12.559Z,16.90
2018-09-15T17:26:14.742Z,16.90
2018-09-15T17:28:16.871Z,16.70
2018-09-15T17:30:19.149Z,16.70
2018-09-15T17:32:21.314Z,16.50
2018-09-15T17:34:24.127Z,16.30
2018-09-15T17:36:26.330Z,16.20
2018-09-15T17:38:28.468Z,16.00
2018-09-15T17:40:30.610Z,16.10
2018-09-15T17:42:32.810Z,16.00
2018-09-15T17:44:34.990Z,16.00
2018-09-15T17:46:37.202Z,15.90
2018-09-15T17:48:39.788Z,15.90
2018-09-15T17:50:42.037Z,15.70
2018-09-15T17:52:45.369Z,15.70
2018-09-15T17:54:47.852Z,15.70
2018-09-15T17:56:49.982Z,15.60
2018-09-15T17:58:52.350Z,15.50
2018-09-15T18:00:54.480Z,15.50
2018-09-15T18:02:56.586Z,15.60
2018-09-15T18:04:58.697Z,15.70
2018-09-15T18:07:02.159Z,15.70
2018-09-15T18:09:05.797Z,15.60
2018-09-15T18:11:07.930Z,15.60
2018-09-15T18:13:10.222Z,15.60
2018-09-15T18:15:12.472Z,15.50
2018-09-15T18:17:14.526Z,15.70
2018-09-15T18:19:16.686Z,15.70
2018-09-15T18:21:18.911Z,15.70
2018-09-15T18:23:21.017Z,15.70
2018-09-15T18:25:23.156Z,15.90
2018-09-15T18:27:25.331Z,15.90
2018-09-15T18:29:27.519Z,15.70
2018-09-15T18:31:29.640Z,15.60
2018-09-15T18:33:31.966Z,15.50
2018-09-15T18:35:34.165Z,15.50
2018-09-15T18:37:36.312Z,15.40
2018-09-15T18:39:38.597Z,15.30
2018-09-15T18:41:40.722Z,15.20
2018-09-15T18:43:42.854Z,15.00
2018-09-15T18:45:45.006Z,15.00
2018-09-15T18:47:47.129Z,15.00
2018-09-15T18:49:49.295Z,14.90
2018-09-15T18:51:51.802Z,14.90
2018-09-15T18:53:53.967Z,14.80
2018-09-15T18:55:56.174Z,14.80
2018-09-15T18:57:58.431Z,14.70
2018-09-15T19:00:00.534Z,14.70
2018-09-15T19:02:02.733Z,14.70
2018-09-15T19:04:04.858Z,14.80
2018-09-15T19:06:07.068Z,14.80
2018-09-15T19:08:09.147Z,14.70
2018-09-15T19:10:11.339Z,14.80
2018-09-15T19:12:13.547Z,14.90
2018-09-15T19:14:15.698Z,15.10
2018-09-15T19:16:17.830Z,15.30
2018-09-15T19:18:19.940Z,15.40
2018-09-15T19:20:22.078Z,15.50
2018-09-15T19:22:24.376Z,15.60
2018-09-15T19:24:26.746Z,15.70
2018-09-15T19:26:28.921Z,15.50
2018-09-15T19:28:31.022Z,15.20
2018-09-15T19:30:33.138Z,15.00
2018-09-15T19:32:35.478Z,14.90
2018-09-15T19:34:37.618Z,14.70
2018-09-15T19:36:39.732Z,14.40
2018-09-15T19:38:41.864Z,14.20
2018-09-15T19:40:43.970Z,14.20
2018-09-15T19:42:46.083Z,14.10
2018-09-15T19:44:48.230Z,14.00
2018-09-15T19:46:50.378Z,14.00
2018-09-15T19:48:52.501Z,13.90
2018-09-15T19:50:54.742Z,13.90
2018-09-15T19:52:56.961Z,14.00
2018-09-15T19:54:59.106Z,14.00
2018-09-15T19:57:01.351Z,13.90
2018-09-15T19:59:03.462Z,13.90
2018-09-15T20:01:05.689Z,13.90
2018-09-15T20:03:08.227Z,13.80
2018-09-15T20:05:10.475Z,13.80
2018-09-15T20:07:12.610Z,13.80
2018-09-15T20:09:14.730Z,13.80
2018-09-15T20:11:17.058Z,13.90
2018-09-15T20:13:19.202Z,13.90
2018-09-15T20:15:22.710Z,13.90
2018-09-15T20:17:23.989Z,13.90
2018-09-15T20:19:25.242Z,13.80
2018-09-15T20:21:26.593Z,13.80
2018-09-15T20:23:28.746Z,13.80
2018-09-15T20:25:30.915Z,13.70
2018-09-15T20:27:33.034Z,13.70
2018-09-15T20:29:35.169Z,13.70
2018-09-15T20:31:37.366Z,13.80
2018-09-15T20:33:39.576Z,13.90
2018-09-15T20:35:41.794Z,14.00
2018-09-15T20:37:43.996Z,13.90
2018-09-15T20:39:46.114Z,13.80
2018-09-15T20:41:48.247Z,13.90
2018-09-15T20:43:50.481Z,14.00
2018-09-15T20:45:52.627Z,14.20
2018-09-15T20:47:54.750Z,14.20
2018-09-15T20:49:56.870Z,14.00
2018-09-15T20:51:58.966Z,13.90
2018-09-15T20:54:01.095Z,13.60
2018-09-15T20:56:03.234Z,13.70
2018-09-15T20:58:05.493Z,13.70
2018-09-15T21:00:08.657Z,13.60
2018-09-15T21:02:11.266Z,13.60
2018-09-15T21:04:13.409Z,13.70
2018-09-15T21:06:15.529Z,13.70
2018-09-15T21:08:17.674Z,13.70
2018-09-15T21:10:19.894Z,13.70
2018-09-15T21:12:22.050Z,14.00
2018-09-15T21:14:25.304Z,14.10
2018-09-15T21:16:27.512Z,13.70
2018-09-15T21:18:29.697Z,13.60
2018-09-15T21:20:33.648Z,13.70
2018-09-15T21:22:35.981Z,14.00
2018-09-15T21:24:38.302Z,13.70
2018-09-15T21:26:40.768Z,13.50
2018-09-15T21:28:42.992Z,13.40
2018-09-15T21:30:45.168Z,13.30
2018-09-15T21:32:47.512Z,13.20
2018-09-15T21:34:49.832Z,13.30
2018-09-15T21:36:52.054Z,13.20
2018-09-15T21:38:54.282Z,13.10
2018-09-15T21:40:56.487Z,13.20
2018-09-15T21:42:58.654Z,13.10
2018-09-15T21:45:01.213Z,13.10
2018-09-15T21:47:03.495Z,13.00
2018-09-15T21:49:05.711Z,12.90
2018-09-15T21:51:07.932Z,12.90
2018-09-15T21:53:10.161Z,12.90
2018-09-15T21:55:12.372Z,12.90
2018-09-15T21:57:14.656Z,12.80
2018-09-15T21:59:16.939Z,12.80
2018-09-15T22:01:19.124Z,12.70
2018-09-15T22:03:22.508Z,12.70
2018-09-15T22:05:24.863Z,12.70
2018-09-15T22:07:27.140Z,12.70
2018-09-15T22:09:29.701Z,12.70
2018-09-15T22:11:31.787Z,12.80
2018-09-15T22:13:34.452Z,12.70
2018-09-15T22:15:36.622Z,12.80
2018-09-15T22:17:39.090Z,12.80
2018-09-15T22:19:41.237Z,12.80
2018-09-15T22:21:43.398Z,12.80
2018-09-15T22:23:45.842Z,12.80
2018-09-15T22:25:48.027Z,12.70
2018-09-15T22:27:50.158Z,12.70
2018-09-15T22:29:52.318Z,12.70
2018-09-15T22:31:54.572Z,12.70
2018-09-15T22:33:57.135Z,12.70
2018-09-15T22:35:59.259Z,12.60
2018-09-15T22:38:01.475Z,12.70
2018-09-15T22:40:03.887Z,12.70
2018-09-15T22:42:06.016Z,12.60
2018-09-15T22:44:08.530Z,12.70
2018-09-15T22:46:10.675Z,12.60
2018-09-15T22:48:12.903Z,12.70
2018-09-15T22:50:15.106Z,12.70
2018-09-15T22:52:17.280Z,12.60
2018-09-15T22:54:19.433Z,12.70
2018-09-15T22:56:21.550Z,12.70
2018-09-15T22:58:23.681Z,12.70
2018-09-15T23:00:25.856Z,12.60
2018-09-15T23:02:28.063Z,12.60
2018-09-15T23:04:30.181Z,12.50
2018-09-15T23:06:33.164Z,12.60
2018-09-15T23:08:35.297Z,12.60
2018-09-15T23:10:37.482Z,12.50
2018-09-15T23:12:39.804Z,12.50
2018-09-15T23:14:41.976Z,12.50
2018-09-15T23:16:44.165Z,12.50
2018-09-15T23:18:46.579Z,12.50
2018-09-15T23:20:48.729Z,12.50
2018-09-15T23:22:50.882Z,12.50
2018-09-15T23:24:53.500Z,12.50
2018-09-15T23:26:55.654Z,12.50
2018-09-15T23:28:57.819Z,12.50
2018-09-15T23:31:00.029Z,12.50
2018-09-15T23:33:02.753Z,12.50
2018-09-15T23:35:05.379Z,12.40
2018-09-15T23:37:07.570Z,12.40
2018-09-15T23:39:09.758Z,12.40
2018-09-15T23:41:11.906Z,12.40
2018-09-15T23:43:14.037Z,12.40
2018-09-15T23:45:16.215Z,12.40
2018-09-15T23:47:18.386Z,12.40
2018-09-15T23:49:20.559Z,12.40
2018-09-15T23:51:22.833Z,12.40
2018-09-15T23:53:24.981Z,12.40
2018-09-15T23:55:27.179Z,12.40
2018-09-15T23:57:29.453Z,12.40
2018-09-15T23:59:31.606Z,12.40
